Time;durP1;ratioP1;P1;durP2;ratioP2;P2;SDS_P1;SDS_P2;PMS_P1;PMS_P2;Temp;Humidity;BMP_temperature;BMP_pressure;BME280_temperature;BME280_humidity;BME280_pressure;Samples;Min_cycle;Max_cycle;Signal;HPM_P1;HPM_P2
2023/10/16 00:00:32;;;;;;;1.92;0.90;;;7.10;99.90;;;;;;5093043;28;20048;-88
2023/10/16 00:03:01;;;;;;;5.57;0.88;;;7.10;99.90;;;;;;5076614;28;20035;-88
2023/10/16 00:05:32;;;;;;;3.72;0.80;;;7.20;99.90;;;;;;5093454;28;20040;-89
2023/10/16 00:08:08;;;;;;;5.20;0.70;;;7.20;99.90;;;;;;5076436;28;20226;-88
2023/10/16 00:10:35;;;;;;;0.88;0.70;;;7.30;99.90;;;;;;5076571;28;20051;-88
2023/10/16 00:13:05;;;;;;;3.67;0.50;;;7.30;99.90;;;;;;5076917;28;20185;-88
2023/10/16 00:15:40;;;;;;;2.30;0.88;;;7.30;99.90;;;;;;5076783;28;20046;-88
2023/10/16 00:18:13;;;;;;;3.25;0.57;;;7.30;99.90;;;;;;5076738;28;20081;-89
2023/10/16 00:20:41;;;;;;;0.10;0.10;;;7.40;99.90;;;;;;5101708;28;20035;-88
2023/10/16 00:23:11;;;;;;;0.52;0.20;;;7.40;99.90;;;;;;5076746;28;20051;-88
2023/10/16 00:25:46;;;;;;;1.40;0.50;;;7.50;99.90;;;;;;5093727;28;20390;-89
2023/10/16 00:28:15;;;;;;;4.32;0.80;;;7.50;99.90;;;;;;5093772;28;20036;-88
2023/10/16 00:30:41;;;;;;;6.72;1.27;;;7.50;99.90;;;;;;5088079;28;20031;-88
2023/10/16 00:33:10;;;;;;;0.85;0.68;;;7.50;99.90;;;;;;5110579;28;20447;-88
2023/10/16 00:35:41;;;;;;;2.03;0.52;;;7.60;99.90;;;;;;5078587;28;20035;-88
2023/10/16 00:38:19;;;;;;;3.47;1.30;;;7.60;99.90;;;;;;5095154;28;20054;-88
2023/10/16 00:40:52;;;;;;;4.75;0.90;;;7.60;99.90;;;;;;5094626;28;20044;-88
2023/10/16 00:43:20;;;;;;;;;;;7.60;99.90;;;;;;5094777;28;20040;-88
2023/10/16 00:45:59;;;;;;;3.22;0.80;;;7.70;99.90;;;;;;5097785;28;20297;-88
2023/10/16 00:48:24;;;;;;;7.10;1.33;;;7.60;99.90;;;;;;5094931;28;20136;-88
2023/10/16 00:50:51;;;;;;;1.60;0.60;;;7.60;99.90;;;;;;5102053;28;20494;-88
2023/10/16 00:53:21;;;;;;;2.92;0.65;;;7.60;99.90;;;;;;5093451;28;20040;-88
2023/10/16 00:55:49;;;;;;;1.35;0.65;;;7.60;99.90;;;;;;5085140;28;20123;-88
2023/10/16 00:58:15;;;;;;;2.88;0.60;;;7.60;99.90;;;;;;5076581;28;20040;-88
2023/10/16 01:00:45;;;;;;;2.33;0.60;;;7.50;99.90;;;;;;5080033;28;20402;-88
2023/10/16 01:03:16;;;;;;;1.23;0.68;;;7.50;99.90;;;;;;5096486;28;20419;-88
2023/10/16 01:05:42;;;;;;;3.05;0.95;;;7.50;99.90;;;;;;5096399;28;20105;-88
2023/10/16 01:08:12;;;;;;;5.07;1.05;;;7.40;99.90;;;;;;5079767;28;20050;-88
2023/10/16 01:10:41;;;;;;;4.47;0.98;;;7.40;99.90;;;;;;5080267;28;20106;-88
2023/10/16 01:13:13;;;;;;;4.38;1.10;;;7.40;99.90;;;;;;5080241;28;20044;-88
2023/10/16 01:15:50;;;;;;;1.75;0.80;;;7.40;99.90;;;;;;5080771;28;20043;-88
2023/10/16 01:18:17;;;;;;;1.55;0.55;;;7.40;99.90;;;;;;5098022;28;20134;-88
2023/10/16 01:20:51;;;;;;;3.35;0.60;;;7.40;99.90;;;;;;5099419;28;20027;-88
2023/10/16 01:23:21;;;;;;;5.05;0.98;;;7.40;99.90;;;;;;5084059;28;20118;-87
2023/10/16 01:25:48;;;;;;;3.40;0.70;;;7.40;99.90;;;;;;5096331;28;20040;-88
2023/10/16 01:28:15;;;;;;;2.92;0.70;;;7.50;99.90;;;;;;5079428;28;20426;-89
2023/10/16 01:30:45;;;;;;;3.22;1.00;;;7.50;99.90;;;;;;5096491;28;20070;-88
2023/10/16 01:33:12;;;;;;;3.10;0.80;;;7.50;99.90;;;;;;5079402;28;20038;-88
2023/10/16 01:35:38;;;;;;;2.08;0.98;;;7.50;99.90;;;;;;5096543;28;20406;-88
2023/10/16 01:38:14;;;;;;;1.75;0.60;;;7.60;99.90;;;;;;5079628;28;20032;-88
2023/10/16 01:41:04;;;;;;;3.25;0.77;;;7.60;99.90;;;;;;5095946;28;20038;-89
2023/10/16 01:43:34;;;;;;;1.38;0.52;;;7.60;99.90;;;;;;5079012;28;20039;-88
2023/10/16 01:46:12;;;;;;;2.88;0.82;;;7.60;99.90;;;;;;5078796;28;20042;-88
2023/10/16 01:48:44;;;;;;;3.35;0.60;;;7.60;99.90;;;;;;5095988;28;20054;-89
2023/10/16 01:51:11;;;;;;;2.08;0.70;;;7.70;99.90;;;;;;5095849;28;20125;-89
2023/10/16 01:53:39;;;;;;;1.17;0.47;;;7.60;99.90;;;;;;5095948;28;20039;-88
2023/10/16 01:56:12;;;;;;;1.08;0.63;;;7.70;99.90;;;;;;5096197;28;20177;-89
2023/10/16 01:58:49;;;;;;;2.30;1.13;;;7.60;99.90;;;;;;5079071;28;20100;-89
2023/10/16 02:01:19;;;;;;;1.20;0.68;;;7.70;99.90;;;;;;5078902;28;20137;-89
2023/10/16 02:03:47;;;;;;;1.60;0.70;;;7.70;99.90;;;;;;5078771;28;20122;-88
2023/10/16 02:06:15;;;;;;;2.55;0.85;;;7.70;99.90;;;;;;5095550;28;20040;-89
2023/10/16 02:08:43;;;;;;;1.42;0.70;;;7.70;99.90;;;;;;5078630;28;20036;-88
2023/10/16 02:11:10;;;;;;;2.08;0.90;;;7.70;99.90;;;;;;5077858;28;20176;-89
2023/10/16 02:13:37;;;;;;;3.55;0.80;;;7.70;99.90;;;;;;5095493;28;20051;-88
2023/10/16 02:16:06;;;;;;;5.00;0.80;;;7.80;99.90;;;;;;5078678;28;20088;-88
2023/10/16 02:18:37;;;;;;;2.45;0.77;;;7.80;99.90;;;;;;5095495;28;20115;-88
2023/10/16 02:21:06;;;;;;;4.32;0.50;;;7.80;99.90;;;;;;5095654;28;20039;-88
2023/10/16 02:23:32;;;;;;;2.47;0.40;;;7.90;99.90;;;;;;5078489;28;20457;-88
2023/10/16 02:26:01;;;;;;;1.98;0.77;;;7.90;99.90;;;;;;5095485;28;20067;-88
2023/10/16 02:28:31;;;;;;;2.97;0.88;;;7.90;99.90;;;;;;5078724;28;20036;-88
2023/10/16 02:31:13;;;;;;;2.10;0.50;;;7.80;99.90;;;;;;5078272;28;20032;-88
2023/10/16 02:33:50;;;;;;;3.78;0.95;;;7.90;99.90;;;;;;5078054;28;20039;-88
2023/10/16 02:36:16;;;;;;;4.15;1.23;;;7.90;99.90;;;;;;5094694;28;20050;-88
2023/10/16 02:38:42;;;;;;;2.88;0.73;;;7.80;99.90;;;;;;5078233;28;20038;-88
2023/10/16 02:41:08;;;;;;;0.35;0.10;;;7.80;99.90;;;;;;5077996;28;20122;-88
2023/10/16 02:43:37;;;;;;;1.70;0.75;;;7.80;99.90;;;;;;5078099;28;20571;-88
2023/10/16 02:46:04;;;;;;;3.28;0.77;;;7.80;99.90;;;;;;5094939;28;20071;-89
2023/10/16 02:48:30;;;;;;;3.22;0.95;;;7.70;99.90;;;;;;5077902;28;20092;-88
2023/10/16 02:50:59;;;;;;;4.25;0.80;;;7.70;99.90;;;;;;5077734;28;20035;-88
2023/10/16 02:53:29;;;;;;;4.32;1.10;;;7.70;99.90;;;;;;5094968;28;20566;-88
2023/10/16 02:56:08;;;;;;;8.82;1.02;;;7.60;99.90;;;;;;5094222;28;20123;-88
2023/10/16 02:58:54;;;;;;;6.40;1.10;;;7.60;99.90;;;;;;5094599;28;20418;-88
2023/10/16 03:01:20;;;;;;;2.80;0.93;;;7.60;99.90;;;;;;5078412;28;20107;-88
2023/10/16 03:03:46;;;;;;;4.85;1.35;;;7.60;99.90;;;;;;5081770;28;20482;-88
2023/10/16 03:06:13;;;;;;;3.03;0.70;;;7.60;99.90;;;;;;5078920;28;20119;-88
2023/10/16 03:08:38;;;;;;;4.93;1.17;;;7.60;99.90;;;;;;5077648;28;20043;-88
2023/10/16 03:11:06;;;;;;;5.07;1.85;;;7.70;99.90;;;;;;5077564;28;20078;-88
2023/10/16 03:13:36;;;;;;;4.85;1.77;;;7.70;99.90;;;;;;5093986;28;20498;-88
2023/10/16 03:16:10;;;;;;;4.07;1.20;;;7.70;99.90;;;;;;5094032;28;20035;-87
2023/10/16 03:18:42;;;;;;;3.92;0.98;;;7.70;99.90;;;;;;5077555;28;20087;-88
2023/10/16 03:21:26;;;;;;;1.07;0.60;;;7.70;99.90;;;;;;5077413;28;20042;-88
2023/10/16 03:23:52;;;;;;;2.17;1.00;;;7.60;99.90;;;;;;5076512;28;20074;-87
2023/10/16 03:28:45;;;;;;;4.75;1.20;;;7.60;99.90;;;;;;5094019;28;20044;-89
2023/10/16 03:31:11;;;;;;;4.00;1.30;;;7.50;99.90;;;;;;5077273;28;20046;-89
2023/10/16 03:33:38;;;;;;;3.72;1.20;;;7.50;99.90;;;;;;5094016;28;20046;-89
2023/10/16 03:36:04;;;;;;;1.30;0.60;;;7.40;99.90;;;;;;5077080;28;20047;-89
2023/10/16 03:38:41;;;;;;;1.13;0.70;;;7.40;99.90;;;;;;5085808;28;20438;-89
2023/10/16 03:41:19;;;;;;;3.92;1.25;;;7.40;99.90;;;;;;5078253;28;20044;-89
2023/10/16 03:44:05;;;;;;;4.55;1.23;;;7.30;99.90;;;;;;5085321;28;20039;-89
2023/10/16 03:46:31;;;;;;;7.53;1.77;;;7.30;99.90;;;;;;5082664;28;20035;-89
2023/10/16 03:48:57;;;;;;;9.25;1.40;;;7.20;99.90;;;;;;5076906;28;20484;-89
2023/10/16 03:51:24;;;;;;;3.78;1.17;;;7.20;99.90;;;;;;5093715;28;20406;-89
2023/10/16 03:53:52;;;;;;;2.00;1.15;;;7.20;99.90;;;;;;5076623;28;20043;-89
2023/10/16 03:56:19;;;;;;;2.63;0.98;;;7.30;99.90;;;;;;5076369;28;20035;-89
2023/10/16 03:58:44;;;;;;;2.25;0.85;;;7.30;99.90;;;;;;5098142;28;20032;-89
2023/10/16 04:01:20;;;;;;;4.35;1.50;;;7.30;99.90;;;;;;5076566;28;20031;-89
2023/10/16 04:03:46;;;;;;;4.45;1.25;;;7.40;99.90;;;;;;5093857;28;20036;-89
2023/10/16 04:06:19;;;;;;;6.30;1.85;;;7.40;99.90;;;;;;5076850;28;20039;-89
2023/10/16 04:08:52;;;;;;;6.97;1.20;;;7.40;99.90;;;;;;5076293;28;20032;-89
2023/10/16 04:11:20;;;;;;;4.47;1.60;;;7.40;99.90;;;;;;5076795;28;20039;-89
2023/10/16 04:13:49;;;;;;;2.58;1.13;;;7.50;99.90;;;;;;5076594;28;20036;-89
2023/10/16 04:16:30;;;;;;;4.45;1.42;;;7.50;99.90;;;;;;5084207;28;20043;-89
2023/10/16 04:19:08;;;;;;;5.25;1.48;;;7.50;99.90;;;;;;5076588;28;20070;-89
2023/10/16 04:21:57;;;;;;;6.72;1.45;;;7.50;99.90;;;;;;5093910;28;20059;-89
2023/10/16 04:27:29;;;;;;;4.88;1.52;;;7.60;99.90;;;;;;5093982;28;20044;-89
2023/10/16 04:29:49;;;;;;;4.63;1.48;;;7.60;99.90;;;;;;5093615;28;20043;-89
2023/10/16 04:38:27;;;;;;;4.90;1.85;;;7.60;99.90;;;;;;5097144;28;20478;-89
2023/10/16 04:49:19;;;;;;;3.38;1.35;;;7.70;99.90;;;;;;5089865;28;20048;-89
2023/10/16 04:52:01;;;;;;;5.90;1.70;;;7.70;99.90;;;;;;5079927;28;20084;-89
2023/10/16 04:54:37;;;;;;;14.13;2.07;;;7.70;99.90;;;;;;5080602;28;20081;-89
2023/10/16 04:59:37;;;;;;;4.35;1.15;;;7.70;99.90;;;;;;5097116;28;20047;-89
2023/10/16 05:02:33;;;;;;;6.15;2.17;;;7.70;99.90;;;;;;5096916;28;20036;-89
2023/10/16 05:05:32;;;;;;;4.32;1.13;;;7.70;99.90;;;;;;5096672;28;20036;-89
2023/10/16 05:07:46;;;;;;;7.38;1.73;;;7.70;99.90;;;;;;5097166;28;20047;-88
2023/10/16 05:10:17;;;;;;;8.38;1.40;;;7.70;99.90;;;;;;5079670;28;20039;-89
2023/10/16 05:15:51;;;;;;;6.13;1.42;;;7.70;99.90;;;;;;4996292;28;20133;-88
2023/10/16 05:18:42;;;;;;;3.00;1.20;;;7.60;99.90;;;;;;4995344;28;20122;-88
2023/10/16 06:16:17;;;;;;;10.80;1.48;;;7.50;99.90;;;;;;5097296;28;20130;-88
2023/10/16 06:18:44;;;;;;;4.03;1.13;;;7.40;99.90;;;;;;5100728;27;20616;-88
2023/10/16 06:21:09;;;;;;;3.35;1.17;;;7.40;99.90;;;;;;5103068;27;20035;-89
2023/10/16 06:23:42;;;;;;;4.00;1.33;;;7.40;99.90;;;;;;5101907;28;20093;-89
2023/10/16 06:26:08;;;;;;;4.53;1.30;;;7.40;99.90;;;;;;5079060;28;20039;-89
2023/10/16 06:28:35;;;;;;;6.75;1.85;;;7.40;99.90;;;;;;5106237;27;20059;-89
2023/10/16 06:31:00;;;;;;;3.35;1.27;;;7.40;99.90;;;;;;5094164;27;20130;-89
2023/10/16 06:33:28;;;;;;;4.13;1.48;;;7.40;99.90;;;;;;5078385;28;20059;-88
2023/10/16 06:35:54;;;;;;;4.13;1.45;;;7.50;99.90;;;;;;5096539;27;20040;-89
2023/10/16 06:38:23;;;;;;;4.20;1.35;;;7.50;99.90;;;;;;5079155;28;20039;-88
2023/10/16 06:40:54;;;;;;;7.20;1.42;;;7.50;99.90;;;;;;5094627;28;20035;-87
2023/10/16 06:43:25;;;;;;;4.75;1.48;;;7.50;99.90;;;;;;5078432;28;20121;-87
2023/10/16 06:45:55;;;;;;;3.40;1.25;;;7.60;99.90;;;;;;5084368;27;20027;-88
2023/10/16 06:48:21;;;;;;;4.55;1.50;;;7.70;99.90;;;;;;5104357;27;20039;-88
2023/10/16 06:50:54;;;;;;;3.28;1.20;;;7.80;99.90;;;;;;5089184;27;20061;-88
2023/10/16 06:53:23;;;;;;;5.32;1.77;;;7.80;99.90;;;;;;5085762;27;20035;-88
2023/10/16 06:55:52;;;;;;;2.95;1.33;;;7.80;99.90;;;;;;5105497;27;20023;-88
2023/10/16 06:58:20;;;;;;;2.78;1.05;;;7.90;99.90;;;;;;5100535;28;20039;-88
2023/10/16 07:00:49;;;;;;;5.35;1.50;;;8.00;99.90;;;;;;5097534;28;20039;-88
2023/10/16 07:03:16;;;;;;;4.38;1.30;;;8.00;99.90;;;;;;5079040;28;20502;-88
2023/10/16 07:05:44;;;;;;;3.70;1.00;;;8.10;99.90;;;;;;5079155;28;20032;-89
2023/10/16 07:08:17;;;;;;;7.32;1.60;;;8.20;99.90;;;;;;5078820;28;20082;-88
2023/10/16 07:10:50;;;;;;;5.65;1.17;;;8.20;99.90;;;;;;5086441;28;20039;-88
2023/10/16 07:13:26;;;;;;;5.22;1.23;;;8.30;99.90;;;;;;5086489;28;20070;-88
2023/10/16 07:16:03;;;;;;;8.18;1.50;;;8.40;99.90;;;;;;5103606;28;20044;-88
2023/10/16 07:18:31;;;;;;;6.80;1.60;;;8.50;99.90;;;;;;5079365;28;20168;-88
2023/10/16 07:21:07;;;;;;;2.85;1.20;;;8.50;99.90;;;;;;5094322;28;20491;-88
2023/10/16 07:23:36;;;;;;;4.35;1.85;;;8.50;99.90;;;;;;5079630;28;20119;-87
2023/10/16 07:26:16;;;;;;;5.18;1.67;;;8.60;99.90;;;;;;5079454;28;20035;-88
2023/10/16 07:28:48;;;;;;;4.43;1.38;;;8.60;99.90;;;;;;5093610;28;20040;-88
2023/10/16 07:31:16;;;;;;;3.95;1.48;;;8.70;99.90;;;;;;5085603;28;20410;-88
2023/10/16 07:33:43;;;;;;;5.28;1.35;;;8.70;99.90;;;;;;5076914;28;20114;-88
2023/10/16 07:36:12;;;;;;;11.68;1.75;;;8.80;99.90;;;;;;5094170;28;20097;-88
2023/10/16 07:38:38;;;;;;;3.17;1.30;;;8.80;99.90;;;;;;5085624;28;20048;-88
2023/10/16 07:41:05;;;;;;;5.78;1.50;;;8.90;99.90;;;;;;5079588;28;20032;-88
2023/10/16 07:43:34;;;;;;;6.85;1.70;;;8.90;99.90;;;;;;5083875;28;20092;-88
2023/10/16 07:46:17;;;;;;;3.03;1.20;;;9.00;99.90;;;;;;5093913;28;20039;-88
2023/10/16 07:48:51;;;;;;;3.65;1.45;;;9.10;99.90;;;;;;5077564;28;20039;-88
2023/10/16 07:51:20;;;;;;;5.03;1.27;;;9.10;99.90;;;;;;5094188;28;20590;-89
2023/10/16 07:53:49;;;;;;;6.10;1.73;;;9.20;99.90;;;;;;5093742;28;20071;-88
2023/10/16 07:59:06;;;;;;;4.70;1.20;;;9.30;99.90;;;;;;5093133;28;20532;-89
2023/10/16 08:01:36;;;;;;;5.90;1.23;;;9.30;99.90;;;;;;5076917;28;20517;-89
2023/10/16 08:06:52;;;;;;;6.68;2.20;;;9.40;99.90;;;;;;5100077;28;20136;-89
2023/10/16 08:11:58;;;;;;;4.60;1.27;;;9.50;99.90;;;;;;5098351;28;20518;-90
2023/10/16 08:14:25;;;;;;;4.25;1.33;;;9.50;99.90;;;;;;5081599;28;20050;-87
2023/10/16 08:16:58;;;;;;;4.20;1.25;;;9.60;99.90;;;;;;5084788;28;20104;-87
2023/10/16 08:19:25;;;;;;;6.95;2.00;;;9.60;99.90;;;;;;5098406;28;20035;-88
2023/10/16 08:21:54;;;;;;;5.55;1.63;;;9.70;99.90;;;;;;5109075;27;20035;-88
2023/10/16 08:24:21;;;;;;;6.65;2.08;;;9.70;99.90;;;;;;5106907;28;20039;-88
2023/10/16 08:26:48;;;;;;;5.68;1.38;;;9.80;99.90;;;;;;5105007;27;20548;-88
2023/10/16 08:29:22;;;;;;;5.85;1.85;;;9.90;99.90;;;;;;5091188;27;20041;-88
2023/10/16 08:32:43;;;;;;;6.13;1.75;;;9.90;99.90;;;;;;5081086;28;20394;-88
2023/10/16 08:34:40;;;;;;;4.88;1.75;;;10.00;99.90;;;;;;5094015;28;20506;-88
2023/10/16 08:37:08;;;;;;;3.95;1.42;;;10.00;99.90;;;;;;5095441;28;20066;-88
2023/10/16 08:39:37;;;;;;;3.90;1.20;;;10.10;99.90;;;;;;5087293;28;20144;-87
2023/10/16 08:42:18;;;;;;;3.00;1.05;;;10.10;99.90;;;;;;5078400;28;20126;-87
2023/10/16 08:45:14;;;;;;;7.07;1.58;;;10.30;99.90;;;;;;5085074;27;20126;-87
2023/10/16 08:47:42;;;;;;;4.97;1.27;;;10.40;99.90;;;;;;5104703;27;20055;-87
2023/10/16 08:50:17;;;;;;;5.65;2.45;;;10.40;99.90;;;;;;5106105;27;20035;-88
2023/10/16 08:52:49;;;;;;;3.33;1.20;;;10.50;99.90;;;;;;5089602;27;20035;-87
2023/10/16 08:55:16;;;;;;;4.13;1.58;;;10.50;99.90;;;;;;5106247;27;20300;-87
2023/10/16 08:57:42;;;;;;;4.90;1.30;;;10.60;99.90;;;;;;5106408;27;20054;-88
2023/10/16 09:00:19;;;;;;;5.35;1.08;;;10.70;99.90;;;;;;5107046;27;20035;-87
2023/10/16 09:02:49;;;;;;;3.92;1.33;;;10.80;99.90;;;;;;5089032;27;20123;-88
2023/10/16 09:05:16;;;;;;;5.28;1.20;;;11.00;99.90;;;;;;5107144;27;20065;-87
2023/10/16 09:07:42;;;;;;;4.28;1.27;;;11.00;99.90;;;;;;5106362;27;20079;-88
2023/10/16 09:10:09;;;;;;;7.88;1.50;;;11.20;99.90;;;;;;5100529;28;20051;-88
2023/10/16 09:12:55;;;;;;;3.38;1.10;;;11.30;99.90;;;;;;5088353;27;20035;-88
2023/10/16 09:15:27;;;;;;;4.38;1.00;;;11.40;99.90;;;;;;5090597;27;20074;-88
2023/10/16 09:17:54;;;;;;;3.45;1.05;;;11.50;99.90;;;;;;5087364;27;20027;-88
2023/10/16 09:20:22;;;;;;;5.55;1.15;;;11.60;99.90;;;;;;5089242;27;20118;-88
2023/10/16 09:22:48;;;;;;;8.20;1.42;;;11.70;99.90;;;;;;5087080;27;20395;-88
2023/10/16 09:25:18;;;;;;;6.32;1.15;;;11.80;99.90;;;;;;5091367;27;20027;-88
2023/10/16 09:27:45;;;;;;;5.65;1.00;;;11.80;99.90;;;;;;5105581;27;20035;-89
2023/10/16 09:30:17;;;;;;;3.58;1.30;;;11.90;99.90;;;;;;5090374;27;20078;-89
2023/10/16 09:32:43;;;;;;;4.07;1.00;;;11.90;99.90;;;;;;5108214;27;20043;-89
2023/10/16 09:35:12;;;;;;;4.93;1.30;;;11.90;99.90;;;;;;5097265;28;20035;-88
2023/10/16 09:37:47;;;;;;;7.65;1.92;;;12.00;99.90;;;;;;5095678;28;20050;-88
2023/10/16 09:40:19;;;;;;;5.00;1.20;;;12.10;99.90;;;;;;5079209;28;20035;-88
2023/10/16 09:42:56;;;;;;;3.97;0.90;;;12.10;99.90;;;;;;5079144;28;20450;-89
2023/10/16 09:45:36;;;;;;;2.95;0.80;;;12.10;99.90;;;;;;5070899;28;20031;-88
2023/10/16 09:48:08;;;;;;;4.88;1.25;;;12.10;99.90;;;;;;5099325;27;20501;-89
2023/10/16 09:50:37;;;;;;;2.20;1.02;;;12.10;99.90;;;;;;5089023;27;20039;-88
2023/10/16 09:53:06;;;;;;;9.05;2.25;;;12.10;99.90;;;;;;5091204;27;20031;-89
2023/10/16 09:55:44;;;;;;;6.57;1.20;;;12.20;99.90;;;;;;5094063;27;20041;-89
2023/10/16 09:58:11;;;;;;;4.70;1.00;;;12.30;99.90;;;;;;5090229;27;20117;-90
2023/10/16 10:00:46;;;;;;;6.45;1.40;;;12.30;99.90;;;;;;5105843;27;20035;-90
2023/10/16 10:03:14;;;;;;;4.78;1.02;;;12.30;99.90;;;;;;5106292;27;20046;-89
2023/10/16 10:05:49;;;;;;;8.93;2.10;;;12.30;99.90;;;;;;5106085;27;20031;-90
2023/10/16 10:08:42;;;;;;;8.75;2.00;;;12.40;99.90;;;;;;5091076;27;20043;-90
2023/10/16 10:11:26;;;;;;;3.63;0.90;;;12.40;99.90;;;;;;5105157;27;20043;-89
2023/10/16 10:14:39;;;;;;;4.60;0.98;;;12.40;99.90;;;;;;5088349;27;20080;-89
2023/10/16 10:16:46;;;;;;;3.55;1.00;;;12.40;99.90;;;;;;5096026;27;20040;-90
2023/10/16 10:19:24;;;;;;;5.25;1.00;;;12.40;99.90;;;;;;5088318;27;20027;-90
2023/10/16 10:21:53;;;;;;;6.22;1.25;;;12.50;99.90;;;;;;5088017;27;20404;-89
2023/10/16 10:24:21;;;;;;;5.63;1.40;;;12.60;99.90;;;;;;5091068;27;20031;-90
2023/10/16 10:26:59;;;;;;;8.00;1.85;;;12.70;99.90;;;;;;5106781;27;20062;-90
2023/10/16 10:29:25;;;;;;;6.20;1.27;;;12.80;99.90;;;;;;5087804;28;20103;-90
2023/10/16 10:31:51;;;;;;;6.50;1.75;;;12.90;99.90;;;;;;5094603;28;20503;-90
2023/10/16 10:34:18;;;;;;;3.70;1.23;;;12.90;99.90;;;;;;5095341;28;20122;-89
2023/10/16 10:36:44;;;;;;;5.18;2.40;;;12.90;99.90;;;;;;5078319;28;20036;-89
2023/10/16 10:39:23;;;;;;;7.15;1.70;;;12.90;99.90;;;;;;5094031;28;20111;-89
2023/10/16 10:41:53;;;;;;;3.88;1.05;;;13.10;99.90;;;;;;5087399;27;20043;-90
2023/10/16 10:44:32;;;;;;;6.22;1.02;;;13.20;99.90;;;;;;5108346;27;20035;-90
2023/10/16 10:47:02;;;;;;;5.53;1.00;;;13.30;99.90;;;;;;5091550;27;20039;-90
2023/10/16 10:49:33;;;;;;;9.52;2.03;;;13.30;99.90;;;;;;5090091;27;20117;-90
2023/10/16 10:52:06;;;;;;;5.78;1.48;;;13.40;99.90;;;;;;5088463;27;20058;-90
2023/10/16 10:54:34;;;;;;;6.85;1.35;;;13.60;99.90;;;;;;5089609;27;20031;-90
2023/10/16 10:57:07;;;;;;;8.50;1.27;;;13.80;99.90;;;;;;5108785;27;20046;-90
2023/10/16 10:59:41;;;;;;;7.25;1.45;;;13.90;99.90;;;;;;5085533;27;20085;-90
2023/10/16 11:04:48;;;;;;;4.20;1.02;;;14.20;99.90;;;;;;5110767;28;20089;-91
2023/10/16 11:07:26;;;;;;;6.60;1.80;;;14.10;99.90;;;;;;5095863;28;20418;-90
2023/10/16 11:09:59;;;;;;;1.45;0.60;;;14.10;99.90;;;;;;5077731;28;20043;-91
2023/10/16 11:12:25;;;;;;;6.53;1.50;;;14.00;99.90;;;;;;5077762;28;20048;-90
2023/10/16 11:14:53;;;;;;;9.07;1.75;;;13.90;99.90;;;;;;5094612;28;20135;-90
2023/10/16 11:17:32;;;;;;;4.63;1.42;;;13.80;99.90;;;;;;5085799;28;20044;-90
2023/10/16 11:20:27;;;;;;;8.30;1.90;;;13.80;99.90;;;;;;5077299;28;20380;-90
2023/10/16 11:22:46;;;;;;;4.85;0.93;;;13.80;99.90;;;;;;5099111;28;20039;-90
2023/10/16 11:25:13;;;;;;;5.20;1.00;;;13.70;99.90;;;;;;5077046;28;20538;-90
2023/10/16 11:27:43;;;;;;;3.63;1.02;;;13.60;99.90;;;;;;5077386;28;20130;-91
2023/10/16 11:30:13;;;;;;;4.88;1.00;;;13.60;99.90;;;;;;5082797;28;20092;-90
2023/10/16 11:32:45;;;;;;;8.57;1.77;;;13.60;99.90;;;;;;5077577;28;20673;-90
2023/10/16 11:35:15;;;;;;;8.05;1.73;;;13.60;99.90;;;;;;5092607;28;20047;-89
2023/10/16 11:37:43;;;;;;;5.10;1.63;;;13.70;99.90;;;;;;5090958;28;20048;-90
2023/10/16 11:40:18;;;;;;;4.35;0.98;;;13.70;99.90;;;;;;5081173;28;20032;-90
2023/10/16 11:42:48;;;;;;;7.00;1.42;;;13.70;99.90;;;;;;5090528;28;20043;-89
2023/10/16 11:45:20;;;;;;;9.73;1.58;;;13.70;99.90;;;;;;5073941;28;20038;-90
2023/10/16 11:48:04;;;;;;;;;;;13.80;99.90;;;;;;5081777;28;20104;-89
2023/10/16 11:50:40;;;;;;;2.88;0.75;;;13.80;99.90;;;;;;5086907;28;19916;-89
2023/10/16 11:53:09;;;;;;;7.70;1.50;;;13.80;99.90;;;;;;5077065;28;20040;-89
2023/10/16 11:55:37;;;;;;;2.08;0.65;;;14.00;99.90;;;;;;5076654;28;20040;-89
2023/10/16 11:58:11;;;;;;;3.47;0.70;;;14.00;99.90;;;;;;5093883;28;20039;-89
2023/10/16 12:00:43;;;;;;;3.00;0.82;;;14.00;99.90;;;;;;5076762;28;20075;-91
2023/10/16 12:03:20;;;;;;;6.05;1.05;;;14.00;99.90;;;;;;5084190;28;20495;-90
2023/10/16 12:05:45;;;;;;;7.50;1.58;;;14.10;99.90;;;;;;5077372;28;20040;-90
2023/10/16 12:08:11;;;;;;;2.10;0.88;;;14.30;99.90;;;;;;5077337;28;20392;-90
2023/10/16 12:10:37;;;;;;;5.75;0.90;;;14.40;99.90;;;;;;5093559;28;20075;-90
2023/10/16 12:13:03;;;;;;;4.15;1.10;;;14.40;99.90;;;;;;5083105;28;20048;-89
2023/10/16 12:15:31;;;;;;;5.45;1.27;;;14.40;99.90;;;;;;5095584;28;20036;-89
2023/10/16 12:18:00;;;;;;;9.65;1.70;;;14.50;99.90;;;;;;5096489;28;20174;-90
2023/10/16 12:20:27;;;;;;;4.43;0.70;;;14.60;99.90;;;;;;5093436;28;20406;-89
2023/10/16 12:22:54;;;;;;;5.85;1.20;;;14.70;99.90;;;;;;5076078;28;20035;-89
2023/10/16 12:25:21;;;;;;;8.35;1.13;;;14.80;99.90;;;;;;5091209;28;20050;-90
2023/10/16 12:27:48;;;;;;;5.80;1.50;;;14.90;99.90;;;;;;5077757;28;20042;-90
2023/10/16 12:30:14;;;;;;;4.28;1.02;;;15.00;99.90;;;;;;5092651;28;20118;-90
2023/10/16 12:32:40;;;;;;;8.82;1.40;;;15.00;99.90;;;;;;5077550;28;20142;-90
2023/10/16 12:35:11;;;;;;;5.72;1.05;;;15.10;99.90;;;;;;5076943;28;20042;-90
2023/10/16 12:37:38;;;;;;;11.20;2.15;;;15.10;99.90;;;;;;5084379;28;20039;-90
2023/10/16 12:40:27;;;;;;;8.00;1.50;;;15.20;99.90;;;;;;5099221;28;20085;-90
2023/10/16 12:42:55;;;;;;;5.47;1.05;;;15.20;99.90;;;;;;5093355;28;20372;-91
2023/10/16 12:45:22;;;;;;;5.60;0.85;;;15.20;99.90;;;;;;5092891;28;20035;-90
2023/10/16 12:47:51;;;;;;;7.35;1.60;;;15.30;99.90;;;;;;5076735;28;20099;-89
2023/10/16 12:50:18;;;;;;;5.57;1.05;;;15.40;99.90;;;;;;5075829;28;20040;-90
2023/10/16 12:52:44;;;;;;;11.20;1.75;;;15.60;99.90;;;;;;5076346;28;20053;-90
2023/10/16 12:55:11;;;;;;;5.55;0.88;;;15.70;99.90;;;;;;5078010;28;20031;-90
2023/10/16 12:57:37;;;;;;;6.68;1.45;;;15.90;99.90;;;;;;5080832;28;20038;-90
2023/10/16 13:00:13;;;;;;;3.28;0.75;;;16.00;99.90;;;;;;5096783;28;20529;-90
2023/10/16 13:02:42;;;;;;;7.78;1.70;;;16.10;99.90;;;;;;5085916;27;20060;-90
2023/10/16 13:05:13;;;;;;;7.10;1.27;;;16.40;99.90;;;;;;5087650;27;20070;-90
2023/10/16 13:07:41;;;;;;;7.72;1.52;;;16.60;99.90;;;;;;5079865;28;20040;-90
2023/10/16 13:10:14;;;;;;;6.72;1.42;;;17.00;99.90;;;;;;5088872;27;20040;-90
2023/10/16 13:12:41;;;;;;;7.25;1.48;;;17.40;99.90;;;;;;5085712;28;20522;-90
2023/10/16 13:15:09;;;;;;;5.95;1.40;;;17.80;99.90;;;;;;5087150;28;20427;-91
2023/10/16 13:17:36;;;;;;;8.57;1.42;;;17.90;96.20;;;;;;5079743;28;20247;-90
2023/10/16 13:20:04;;;;;;;7.47;1.50;;;18.10;95.20;;;;;;5079733;28;20036;-90
2023/10/16 13:22:31;;;;;;;7.25;1.40;;;18.20;94.30;;;;;;5079804;28;20036;-90
2023/10/16 13:24:56;;;;;;;7.20;1.27;;;18.10;93.00;;;;;;5079450;28;20041;-90
2023/10/16 13:27:22;;;;;;;7.90;1.63;;;18.00;93.60;;;;;;5096425;28;20040;-91
2023/10/16 13:29:48;;;;;;;5.68;1.40;;;17.90;94.10;;;;;;5096432;28;20032;-91
2023/10/16 13:32:14;;;;;;;7.22;1.48;;;18.00;95.10;;;;;;5079452;28;20596;-92
2023/10/16 13:34:39;;;;;;;8.57;1.73;;;18.10;91.70;;;;;;5088605;28;20123;-91
2023/10/16 13:37:08;;;;;;;7.57;1.77;;;18.10;92.40;;;;;;5084416;27;20117;-90
2023/10/16 13:39:40;;;;;;;7.10;1.65;;;18.20;92.70;;;;;;5097528;28;20131;-91
2023/10/16 13:42:10;;;;;;;8.48;1.58;;;18.30;91.60;;;;;;5082635;28;20082;-91
2023/10/16 13:44:36;;;;;;;11.20;1.75;;;18.30;91.10;;;;;;5100378;28;20031;-90
2023/10/16 13:47:05;;;;;;;7.50;1.30;;;18.30;92.10;;;;;;5096913;28;20464;-90
2023/10/16 13:49:37;;;;;;;5.75;1.40;;;18.20;90.90;;;;;;5095265;28;20052;-90
2023/10/16 13:52:07;;;;;;;6.00;1.30;;;18.10;90.00;;;;;;5078762;28;20433;-90
2023/10/16 13:54:38;;;;;;;6.75;1.60;;;18.10;90.30;;;;;;5096089;28;20096;-91
2023/10/16 13:57:04;;;;;;;8.10;1.50;;;18.00;89.50;;;;;;5095774;28;20082;-90
2023/10/16 13:59:29;;;;;;;8.68;1.55;;;17.90;90.30;;;;;;5078978;28;20071;-90
2023/10/16 14:01:56;;;;;;;5.03;0.90;;;17.80;89.30;;;;;;5095814;28;20046;-90
2023/10/16 14:04:25;;;;;;;7.90;1.50;;;17.70;91.50;;;;;;5095380;28;20585;-91
2023/10/16 14:06:53;;;;;;;6.93;1.50;;;17.60;90.90;;;;;;5077787;28;20052;-90
2023/10/16 14:09:32;;;;;;;8.80;1.60;;;17.60;91.00;;;;;;5078426;28;20130;-90
2023/10/16 14:11:59;;;;;;;5.43;1.42;;;17.50;89.90;;;;;;5082156;28;20445;-90
2023/10/16 14:14:32;;;;;;;6.20;1.42;;;17.50;89.90;;;;;;5103432;28;20040;-90
2023/10/16 14:17:16;;;;;;;7.10;1.50;;;17.30;88.10;;;;;;5078586;28;20487;-90
2023/10/16 14:19:47;;;;;;;6.18;1.38;;;17.20;89.00;;;;;;5095484;28;20108;-90
2023/10/16 14:22:16;;;;;;;10.25;2.90;;;17.10;89.30;;;;;;5084236;27;20036;-90
2023/10/16 14:24:45;;;;;;;11.48;4.57;;;17.00;90.30;;;;;;5103471;27;20036;-90
2023/10/16 14:27:20;;;;;;;8.63;3.00;;;16.90;90.40;;;;;;5083847;28;20039;-90
2023/10/16 14:29:45;;;;;;;9.98;2.60;;;16.80;90.10;;;;;;5101059;27;20068;-90
2023/10/16 14:32:13;;;;;;;8.98;1.60;;;16.70;90.70;;;;;;5084316;27;20063;-90
2023/10/16 14:34:39;;;;;;;9.13;1.65;;;16.70;91.30;;;;;;5119466;27;20051;-90
2023/10/16 14:37:05;;;;;;;7.22;1.42;;;16.60;91.00;;;;;;5085763;28;20035;-90
2023/10/16 14:39:31;;;;;;;6.55;1.30;;;16.50;90.80;;;;;;5103476;27;20036;-90
2023/10/16 14:42:01;;;;;;;6.70;1.30;;;16.40;92.50;;;;;;5084224;28;20078;-90